createdAt,value
2022-08-27T00:00:48.699Z,0.30
2022-08-27T00:03:16.548Z,0.30
2022-08-27T00:05:44.229Z,0.80
2022-08-27T00:08:13.185Z,0.57
2022-08-27T00:10:41.028Z,0.37
2022-08-27T00:13:08.392Z,1.70
2022-08-27T00:15:35.375Z,0.77
2022-08-27T00:18:02.636Z,0.20
2022-08-27T00:20:29.620Z,1.70
2022-08-27T00:22:56.511Z,0.77
2022-08-27T00:25:23.748Z,0.40
2022-08-27T00:27:51.495Z,0.77
2022-08-27T00:30:21.407Z,0.57
2022-08-27T00:32:48.937Z,0.57
2022-08-27T00:35:16.237Z,1.37
2022-08-27T00:37:44.352Z,0.37
2022-08-27T00:40:16.004Z,0.20
2022-08-27T00:42:45.883Z,0.50
2022-08-27T00:45:16.104Z,0.53
2022-08-27T00:47:48.508Z,1.17
2022-08-27T00:50:24.790Z,1.03
2022-08-27T00:52:56.088Z,0.40
2022-08-27T00:55:29.983Z,0.60
2022-08-27T00:58:06.939Z,0.43
2022-08-27T01:00:35.093Z,1.00
2022-08-27T01:03:01.828Z,0.60
2022-08-27T01:05:28.778Z,0.63
2022-08-27T01:08:02.113Z,0.63
2022-08-27T01:10:30.463Z,0.53
2022-08-27T01:12:57.871Z,0.23
2022-08-27T01:15:28.544Z,1.00
2022-08-27T01:17:57.267Z,1.93
2022-08-27T01:20:30.639Z,0.57
2022-08-27T01:23:25.479Z,0.40
2022-08-27T01:25:52.540Z,1.60
2022-08-27T01:28:23.619Z,0.77
2022-08-27T01:30:56.082Z,0.20
2022-08-27T01:33:23.737Z,1.40
2022-08-27T01:35:52.225Z,0.87
2022-08-27T01:38:30.884Z,1.07
2022-08-27T01:41:00.420Z,0.63
2022-08-27T01:43:29.319Z,0.30
2022-08-27T01:45:56.153Z,0.40
2022-08-27T01:48:23.236Z,1.03
2022-08-27T01:50:50.752Z,0.83
2022-08-27T01:53:21.012Z,0.90
2022-08-27T01:55:49.677Z,0.80
2022-08-27T01:58:18.690Z,0.33
2022-08-27T02:00:54.211Z,0.73
2022-08-27T02:03:24.048Z,1.23
2022-08-27T02:05:51.847Z,0.40
2022-08-27T02:08:19.556Z,0.90
2022-08-27T02:10:48.573Z,0.60
2022-08-27T02:13:16.779Z,1.57
2022-08-27T02:15:44.414Z,1.13
2022-08-27T02:18:12.159Z,0.33
2022-08-27T02:20:39.628Z,0.57
2022-08-27T02:23:06.638Z,1.03
2022-08-27T02:25:34.097Z,0.87
2022-08-27T02:28:01.850Z,0.60
2022-08-27T02:30:32.050Z,0.43
2022-08-27T02:33:02.915Z,0.50
2022-08-27T02:35:32.422Z,0.37
2022-08-27T02:37:59.937Z,0.40
2022-08-27T02:40:27.012Z,0.47
2022-08-27T02:42:53.807Z,0.97
2022-08-27T02:45:20.979Z,0.93
2022-08-27T02:47:48.634Z,0.40
2022-08-27T02:50:16.430Z,1.40
2022-08-27T02:52:46.247Z,0.63
2022-08-27T02:55:17.214Z,0.27
2022-08-27T02:57:45.145Z,0.17
2022-08-27T03:00:14.946Z,0.40
2022-08-27T03:02:41.794Z,1.30
2022-08-27T03:05:09.497Z,0.43
2022-08-27T03:07:37.330Z,0.33
2022-08-27T03:10:05.575Z,0.30
2022-08-27T03:12:34.303Z,0.30
2022-08-27T03:15:01.191Z,1.13
2022-08-27T03:17:46.816Z,0.40
2022-08-27T03:20:13.762Z,1.13
2022-08-27T03:22:40.815Z,0.30
2022-08-27T03:25:08.983Z,0.80
2022-08-27T03:27:35.792Z,0.80
2022-08-27T03:30:05.728Z,0.70
2022-08-27T03:32:32.947Z,0.30
2022-08-27T03:35:00.053Z,0.37
2022-08-27T03:37:26.903Z,1.07
2022-08-27T03:39:55.001Z,0.83
2022-08-27T03:42:22.108Z,0.77
2022-08-27T03:44:49.506Z,0.30
2022-08-27T03:47:16.752Z,1.07
2022-08-27T03:49:43.714Z,0.43
2022-08-27T03:52:10.808Z,1.07
2022-08-27T03:54:38.589Z,0.77
2022-08-27T03:57:06.122Z,0.70
2022-08-27T03:59:33.495Z,1.27
2022-08-27T04:02:02.431Z,1.93
2022-08-27T04:04:30.005Z,0.80
2022-08-27T04:06:59.132Z,1.07
2022-08-27T04:09:26.503Z,1.00
2022-08-27T04:11:53.678Z,1.13
2022-08-27T04:14:26.893Z,0.30
2022-08-27T04:16:56.564Z,0.23
2022-08-27T04:19:28.530Z,0.93
2022-08-27T04:22:00.821Z,1.60
2022-08-27T04:24:29.037Z,0.43
2022-08-27T04:26:55.805Z,1.50
2022-08-27T04:29:22.927Z,0.93
2022-08-27T04:31:49.879Z,0.77
2022-08-27T04:34:17.781Z,1.23
2022-08-27T04:36:46.139Z,0.47
2022-08-27T04:39:14.135Z,0.20
2022-08-27T04:41:41.614Z,0.27
2022-08-27T04:44:10.522Z,0.97
2022-08-27T04:46:39.750Z,0.50
2022-08-27T04:49:10.915Z,0.73
2022-08-27T04:51:40.151Z,1.00
2022-08-27T04:54:08.657Z,1.17
2022-08-27T04:56:37.198Z,1.07
2022-08-27T04:59:06.853Z,1.17
2022-08-27T05:01:33.945Z,1.43
2022-08-27T05:04:00.859Z,1.17
2022-08-27T05:06:28.008Z,0.33
2022-08-27T05:08:55.863Z,1.27
2022-08-27T05:11:27.371Z,0.50
2022-08-27T05:13:54.416Z,1.00
2022-08-27T05:16:23.140Z,0.40
2022-08-27T05:18:51.762Z,0.23
2022-08-27T05:21:27.876Z,0.20
2022-08-27T05:23:56.751Z,0.73
2022-08-27T05:26:23.817Z,1.10
2022-08-27T05:28:50.699Z,0.43
2022-08-27T05:31:19.744Z,0.40
2022-08-27T05:33:47.120Z,1.23
2022-08-27T05:36:28.153Z,1.17
2022-08-27T05:38:56.208Z,0.50
2022-08-27T05:41:33.851Z,1.37
2022-08-27T05:44:36.846Z,0.50
2022-08-27T05:46:56.417Z,0.73
2022-08-27T05:49:23.112Z,0.73
2022-08-27T05:51:49.908Z,0.40
2022-08-27T05:54:21.164Z,0.70
2022-08-27T05:56:50.223Z,1.37
2022-08-27T05:59:56.502Z,0.37
2022-08-27T06:02:23.397Z,0.70
2022-08-27T06:04:50.383Z,0.50
2022-08-27T06:07:17.269Z,0.73
2022-08-27T06:09:44.079Z,0.50
2022-08-27T06:12:10.916Z,0.50
2022-08-27T06:14:38.822Z,1.70
2022-08-27T06:17:06.442Z,1.47
2022-08-27T06:19:34.831Z,1.03
2022-08-27T06:22:09.934Z,0.60
2022-08-27T06:24:40.690Z,0.80
2022-08-27T06:27:11.923Z,0.47
2022-08-27T06:29:39.850Z,0.83
2022-08-27T06:32:07.095Z,0.83
2022-08-27T06:34:34.153Z,0.30
2022-08-27T06:37:00.892Z,0.30
2022-08-27T06:39:28.061Z,0.30
2022-08-27T06:41:58.597Z,1.23
2022-08-27T06:44:25.744Z,1.13
2022-08-27T06:46:53.903Z,0.93
2022-08-27T06:49:21.274Z,0.30
2022-08-27T06:51:48.160Z,0.47
2022-08-27T06:54:16.780Z,0.33
2022-08-27T06:56:44.655Z,0.57
2022-08-27T06:59:15.012Z,0.30
2022-08-27T07:01:44.102Z,0.20
2022-08-27T07:04:14.198Z,0.60
2022-08-27T07:06:41.843Z,0.30
2022-08-27T07:09:10.650Z,0.77
2022-08-27T07:11:38.314Z,0.67
2022-08-27T07:14:06.330Z,1.07
2022-08-27T07:16:33.899Z,0.63
2022-08-27T07:19:05.427Z,1.47
2022-08-27T07:21:34.034Z,2.13
2022-08-27T07:24:04.968Z,1.10
2022-08-27T07:26:38.120Z,0.97
2022-08-27T07:29:07.307Z,2.97
2022-08-27T07:31:35.782Z,5.57
2022-08-27T07:34:04.908Z,0.70
2022-08-27T07:36:33.599Z,0.50
2022-08-27T07:39:01.624Z,1.47
2022-08-27T07:41:31.396Z,2.17
2022-08-27T07:44:19.080Z,1.27
2022-08-27T07:46:48.227Z,1.83
2022-08-27T07:49:19.414Z,1.03
2022-08-27T07:51:47.045Z,1.10
2022-08-27T07:54:15.553Z,0.87
2022-08-27T07:56:44.305Z,0.97
2022-08-27T07:59:27.331Z,0.60
2022-08-27T08:01:56.113Z,0.50
2022-08-27T08:04:23.813Z,0.90
2022-08-27T08:06:51.441Z,0.97
2022-08-27T08:09:18.632Z,3.77
2022-08-27T08:11:45.535Z,0.70
2022-08-27T08:14:12.338Z,0.60
2022-08-27T08:16:39.335Z,0.40
2022-08-27T08:19:07.165Z,0.70
2022-08-27T08:21:34.358Z,1.20
2022-08-27T08:24:02.458Z,0.93
2022-08-27T08:26:29.267Z,0.60
2022-08-27T08:28:56.334Z,0.43
2022-08-27T08:31:27.435Z,0.70
2022-08-27T08:33:54.884Z,0.60
2022-08-27T08:36:22.189Z,0.50
2022-08-27T08:38:50.547Z,1.67
2022-08-27T08:41:31.893Z,1.27
2022-08-27T08:44:05.728Z,1.30
2022-08-27T08:46:58.768Z,0.30
2022-08-27T08:50:19.725Z,0.83
2022-08-27T08:53:02.324Z,0.90
2022-08-27T08:55:35.254Z,0.57
2022-08-27T08:58:08.809Z,1.27
2022-08-27T09:00:39.675Z,0.23
2022-08-27T09:03:07.540Z,1.53
2022-08-27T09:05:38.966Z,0.87
2022-08-27T09:08:33.109Z,1.03
2022-08-27T09:11:20.660Z,0.63
2022-08-27T09:13:55.601Z,1.17
2022-08-27T09:16:23.155Z,1.37
2022-08-27T09:18:52.420Z,0.70
2022-08-27T09:21:45.042Z,0.70
2022-08-27T09:24:30.547Z,1.13
2022-08-27T09:26:57.627Z,0.40
2022-08-27T09:29:28.654Z,1.23
2022-08-27T09:32:08.721Z,0.93
2022-08-27T09:34:39.004Z,0.70
2022-08-27T09:37:20.501Z,0.90
2022-08-27T09:39:48.195Z,0.57
2022-08-27T09:42:23.644Z,0.60
2022-08-27T09:44:53.556Z,0.67
2022-08-27T09:47:20.582Z,0.47
2022-08-27T09:49:47.761Z,0.50
2022-08-27T09:52:45.139Z,0.70
2022-08-27T09:55:12.010Z,0.50
2022-08-27T09:57:41.886Z,1.43
2022-08-27T10:00:15.787Z,0.77
2022-08-27T10:02:52.800Z,1.30
2022-08-27T10:05:31.089Z,1.13
2022-08-27T10:08:25.866Z,0.73
2022-08-27T10:10:55.133Z,1.17
2022-08-27T10:13:57.968Z,0.70
2022-08-27T10:16:59.432Z,1.37
2022-08-27T10:19:48.197Z,0.50
2022-08-27T10:22:15.015Z,0.87
2022-08-27T10:24:59.627Z,0.40
2022-08-27T10:27:32.615Z,0.60
2022-08-27T10:30:32.858Z,1.00
2022-08-27T10:33:12.496Z,0.40
2022-08-27T10:35:53.735Z,0.50
2022-08-27T10:38:42.393Z,0.47
2022-08-27T10:41:37.652Z,0.93
2022-08-27T10:44:32.338Z,0.70
2022-08-27T10:47:24.357Z,0.60
2022-08-27T10:50:27.367Z,0.60
2022-08-27T10:53:11.679Z,0.43
2022-08-27T10:55:45.931Z,0.43
2022-08-27T10:58:15.735Z,0.50
2022-08-27T11:00:55.508Z,1.00
2022-08-27T11:03:39.659Z,0.70
2022-08-27T11:06:57.601Z,0.73
2022-08-27T11:09:35.076Z,0.77
2022-08-27T11:12:15.052Z,1.20
2022-08-27T11:14:56.443Z,0.47
2022-08-27T11:17:50.567Z,0.87
2022-08-27T11:20:46.636Z,0.60
2022-08-27T11:23:19.421Z,0.30
2022-08-27T11:25:57.452Z,2.07
2022-08-27T11:28:51.631Z,1.33
2022-08-27T11:31:36.672Z,1.43
2022-08-27T11:34:33.365Z,3.10
2022-08-27T11:37:07.729Z,1.40
2022-08-27T11:39:52.695Z,1.37
2022-08-27T11:42:45.632Z,1.07
2022-08-27T11:45:28.581Z,1.30
2022-08-27T11:48:01.147Z,0.47
2022-08-27T11:50:31.211Z,0.50
2022-08-27T11:53:03.824Z,0.47
2022-08-27T11:55:36.955Z,0.50
2022-08-27T11:58:08.437Z,0.50
2022-08-27T12:00:42.218Z,3.93
2022-08-27T12:03:23.611Z,1.10
2022-08-27T12:05:53.494Z,0.50
2022-08-27T12:08:22.977Z,0.63
2022-08-27T12:11:30.936Z,0.73
2022-08-27T12:14:48.478Z,0.40
2022-08-27T12:17:40.480Z,0.57
2022-08-27T12:20:26.779Z,0.77
2022-08-27T12:23:40.940Z,0.87
2022-08-27T12:26:36.510Z,0.70
2022-08-27T12:29:43.975Z,1.80
2022-08-27T12:32:16.972Z,0.67
2022-08-27T12:34:49.668Z,0.60
2022-08-27T12:37:25.521Z,0.50
2022-08-27T12:39:55.198Z,0.97
2022-08-27T12:42:22.823Z,0.40
2022-08-27T12:44:57.459Z,0.40
2022-08-27T12:47:24.885Z,0.70
2022-08-27T12:49:55.822Z,1.33
2022-08-27T12:52:41.151Z,0.80
2022-08-27T12:55:31.101Z,6.53
2022-08-27T12:58:06.143Z,1.93
2022-08-27T13:01:16.784Z,1.77
2022-08-27T13:03:50.621Z,0.80
2022-08-27T13:06:20.648Z,1.07
2022-08-27T13:08:54.783Z,0.60
2022-08-27T13:11:25.527Z,1.50
2022-08-27T13:14:03.657Z,1.47
2022-08-27T13:16:31.865Z,0.73
2022-08-27T13:18:58.743Z,1.00
2022-08-27T13:21:29.075Z,0.57
2022-08-27T13:24:04.260Z,0.60
2022-08-27T13:26:34.334Z,1.63
2022-08-27T13:29:03.803Z,0.47
2022-08-27T13:31:32.037Z,0.37
2022-08-27T13:33:59.694Z,0.50
2022-08-27T13:36:32.538Z,0.90
2022-08-27T13:39:03.411Z,1.03
2022-08-27T13:41:35.209Z,0.53
2022-08-27T13:44:12.252Z,2.70
2022-08-27T13:47:00.844Z,1.20
2022-08-27T13:49:31.792Z,0.70
2022-08-27T13:52:28.069Z,0.90
2022-08-27T13:55:07.943Z,1.30
2022-08-27T13:57:46.106Z,1.00
2022-08-27T14:00:23.827Z,0.80
2022-08-27T14:02:55.911Z,0.90
2022-08-27T14:05:23.448Z,1.07
2022-08-27T14:07:58.294Z,0.83
2022-08-27T14:10:37.628Z,0.87
2022-08-27T14:13:24.594Z,0.47
2022-08-27T14:15:59.770Z,1.20
2022-08-27T14:18:55.135Z,1.27
2022-08-27T14:21:18.364Z,0.60
2022-08-27T14:23:45.198Z,0.47
2022-08-27T14:26:13.865Z,0.63
2022-08-27T14:28:40.796Z,1.50
2022-08-27T14:31:07.655Z,0.97
2022-08-27T14:33:34.688Z,0.93
2022-08-27T14:36:01.960Z,0.63
2022-08-27T14:38:31.630Z,1.40
2022-08-27T14:40:58.787Z,0.90
2022-08-27T14:43:25.878Z,0.90
2022-08-27T14:45:53.877Z,0.70
2022-08-27T14:48:33.612Z,0.57
2022-08-27T14:51:07.124Z,0.40
2022-08-27T14:53:34.417Z,0.50
2022-08-27T14:56:01.854Z,0.90
2022-08-27T14:58:29.437Z,1.10
2022-08-27T15:00:57.860Z,0.63
2022-08-27T15:03:25.647Z,1.40
2022-08-27T15:05:54.947Z,0.67
2022-08-27T15:08:27.682Z,0.83
2022-08-27T15:10:58.048Z,1.07
2022-08-27T15:13:25.134Z,0.87
2022-08-27T15:15:52.414Z,1.00
2022-08-27T15:18:19.831Z,2.60
2022-08-27T15:20:46.904Z,0.67
2022-08-27T15:23:15.655Z,2.90
2022-08-27T15:25:44.898Z,3.53
2022-08-27T15:28:12.113Z,1.10
2022-08-27T15:30:39.075Z,0.87
2022-08-27T15:33:07.466Z,0.83
2022-08-27T15:35:34.756Z,0.40
2022-08-27T15:38:02.006Z,1.07
2022-08-27T15:40:33.171Z,1.67
2022-08-27T15:43:03.679Z,0.60
2022-08-27T15:45:32.311Z,7.33
2022-08-27T15:48:00.222Z,2.93
2022-08-27T15:50:28.737Z,0.50
2022-08-27T15:53:00.222Z,1.00
2022-08-27T15:55:31.558Z,1.70
2022-08-27T15:57:59.943Z,0.63
2022-08-27T16:00:28.300Z,0.73
2022-08-27T16:02:56.252Z,2.00
2022-08-27T16:05:23.219Z,0.80
2022-08-27T16:07:50.017Z,0.83
2022-08-27T16:10:17.055Z,1.20
2022-08-27T16:12:44.479Z,0.90
2022-08-27T16:15:12.294Z,3.60
2022-08-27T16:17:40.207Z,3.33
2022-08-27T16:20:09.001Z,0.77
2022-08-27T16:22:36.808Z,0.80
2022-08-27T16:25:06.811Z,1.70
2022-08-27T16:27:33.860Z,0.53
2022-08-27T16:30:01.293Z,1.20
2022-08-27T16:32:31.456Z,0.80
2022-08-27T16:34:58.535Z,0.60
2022-08-27T16:37:25.660Z,1.17
2022-08-27T16:39:52.903Z,1.97
2022-08-27T16:42:19.971Z,0.53
2022-08-27T16:44:46.816Z,1.17
2022-08-27T16:47:13.655Z,0.50
2022-08-27T16:49:58.803Z,0.80
2022-08-27T16:52:26.797Z,4.97
2022-08-27T16:54:54.579Z,2.53
2022-08-27T16:57:21.587Z,1.33
2022-08-27T16:59:48.458Z,2.63
2022-08-27T17:02:42.079Z,0.60
2022-08-27T17:05:33.472Z,2.77
2022-08-27T17:07:56.226Z,0.63
2022-08-27T17:10:24.501Z,0.73
2022-08-27T17:12:51.589Z,1.20
2022-08-27T17:15:18.791Z,1.10
2022-08-27T17:17:46.309Z,1.57
2022-08-27T17:20:15.297Z,0.97
2022-08-27T17:22:42.651Z,0.77
2022-08-27T17:25:11.246Z,0.77
2022-08-27T17:27:38.428Z,1.07
2022-08-27T17:30:07.010Z,0.70
2022-08-27T17:32:37.852Z,1.10
2022-08-27T17:35:07.117Z,0.90
2022-08-27T17:37:35.446Z,0.53
2022-08-27T17:40:04.949Z,0.80
2022-08-27T17:42:32.072Z,0.93
2022-08-27T17:45:00.059Z,1.37
2022-08-27T17:47:27.893Z,1.40
2022-08-27T17:49:54.668Z,0.67
2022-08-27T17:52:22.466Z,1.37
2022-08-27T17:54:56.226Z,0.53
2022-08-27T17:57:26.543Z,0.93
2022-08-27T17:59:54.947Z,1.77
2022-08-27T18:02:36.742Z,0.97
2022-08-27T18:05:05.751Z,0.73
2022-08-27T18:07:36.703Z,0.90
2022-08-27T18:10:06.855Z,0.60
2022-08-27T18:12:33.927Z,1.20
2022-08-27T18:15:09.810Z,0.57
2022-08-27T18:17:42.573Z,1.57
2022-08-27T18:20:13.232Z,0.53
2022-08-27T18:22:40.843Z,0.70
2022-08-27T18:25:09.732Z,1.23
2022-08-27T18:27:37.926Z,0.77
2022-08-27T18:30:05.970Z,0.70
2022-08-27T18:32:32.759Z,1.03
2022-08-27T18:35:03.373Z,0.97
2022-08-27T18:37:30.372Z,5.10
2022-08-27T18:39:57.202Z,7.13
2022-08-27T18:42:24.243Z,4.57
2022-08-27T18:44:51.097Z,2.37
2022-08-27T18:47:17.935Z,0.80
2022-08-27T18:49:44.699Z,1.37
2022-08-27T18:52:13.521Z,1.30
2022-08-27T18:54:42.883Z,1.50
2022-08-27T18:57:09.634Z,0.30
2022-08-27T18:59:36.425Z,1.13
2022-08-27T19:02:04.045Z,1.87
2022-08-27T19:04:33.535Z,6.30
2022-08-27T19:07:00.375Z,1.10
2022-08-27T19:09:27.220Z,1.63
2022-08-27T19:11:53.939Z,1.27
2022-08-27T19:14:21.047Z,0.70
2022-08-27T19:16:53.540Z,1.13
2022-08-27T19:19:20.436Z,0.83
2022-08-27T19:21:51.453Z,0.97
2022-08-27T19:24:21.694Z,1.17
2022-08-27T19:26:50.028Z,0.67
2022-08-27T19:29:17.342Z,0.83
2022-08-27T19:31:46.587Z,0.53
2022-08-27T19:34:13.511Z,0.63
2022-08-27T19:36:43.012Z,2.10
2022-08-27T19:39:12.721Z,3.97
2022-08-27T19:41:40.504Z,2.13
2022-08-27T19:44:07.661Z,2.53
2022-08-27T19:46:36.705Z,0.90
2022-08-27T19:49:04.623Z,1.13
2022-08-27T19:51:31.850Z,0.90
2022-08-27T19:53:58.736Z,0.67
2022-08-27T19:56:25.699Z,0.43
2022-08-27T19:58:56.658Z,0.80
2022-08-27T20:01:24.725Z,0.33
2022-08-27T20:03:51.640Z,0.50
2022-08-27T20:06:19.169Z,0.53
2022-08-27T20:08:49.898Z,0.67
2022-08-27T20:11:18.151Z,0.30
2022-08-27T20:13:50.794Z,1.80
2022-08-27T20:16:17.924Z,1.27
2022-08-27T20:19:04.714Z,1.10
2022-08-27T20:21:31.837Z,3.77
2022-08-27T20:23:58.662Z,2.07
2022-08-27T20:26:26.782Z,0.97
2022-08-27T20:28:54.540Z,0.73
2022-08-27T20:31:21.652Z,0.90
2022-08-27T20:33:48.987Z,0.73
2022-08-27T20:36:15.926Z,0.60
2022-08-27T20:38:43.768Z,0.63
2022-08-27T20:41:10.604Z,0.77
2022-08-27T20:43:37.609Z,0.67
2022-08-27T20:46:05.030Z,0.63
2022-08-27T20:48:32.884Z,1.30
2022-08-27T20:50:59.832Z,0.80
2022-08-27T20:53:29.822Z,0.83
2022-08-27T20:55:56.766Z,1.33
2022-08-27T20:58:43.537Z,1.07
2022-08-27T21:01:11.029Z,0.50
2022-08-27T21:03:37.976Z,0.60
2022-08-27T21:06:06.187Z,0.70
2022-08-27T21:08:33.099Z,0.57
2022-08-27T21:11:01.108Z,1.33
2022-08-27T21:13:29.236Z,1.17
2022-08-27T21:15:56.690Z,0.50
2022-08-27T21:18:29.627Z,1.87
2022-08-27T21:20:59.924Z,8.13
2022-08-27T21:23:28.961Z,5.40
2022-08-27T21:26:01.732Z,1.67
2022-08-27T21:28:29.334Z,1.10
2022-08-27T21:30:57.082Z,1.33
2022-08-27T21:33:24.111Z,1.13
2022-08-27T21:35:50.831Z,1.30
2022-08-27T21:38:17.941Z,0.97
2022-08-27T21:40:44.952Z,1.07
2022-08-27T21:43:11.799Z,1.50
2022-08-27T21:45:39.396Z,0.50
2022-08-27T21:48:06.390Z,0.67
2022-08-27T21:50:33.260Z,0.93
2022-08-27T21:53:00.185Z,0.97
2022-08-27T21:55:27.021Z,1.47
2022-08-27T21:57:54.022Z,1.73
2022-08-27T22:00:28.286Z,1.20
2022-08-27T22:02:56.289Z,1.10
2022-08-27T22:05:23.431Z,0.80
2022-08-27T22:07:50.327Z,0.53
2022-08-27T22:10:17.348Z,0.70
2022-08-27T22:12:44.115Z,1.40
2022-08-27T22:15:10.927Z,0.77
2022-08-27T22:17:37.887Z,0.60
2022-08-27T22:20:07.595Z,0.40
2022-08-27T22:22:34.437Z,1.03
2022-08-27T22:25:01.601Z,2.60
2022-08-27T22:27:28.396Z,0.70
2022-08-27T22:29:55.126Z,0.60
2022-08-27T22:32:22.135Z,3.77
2022-08-27T22:34:48.906Z,1.77
2022-08-27T22:37:16.038Z,2.53
2022-08-27T22:39:42.783Z,6.73
2022-08-27T22:42:09.766Z,5.73
2022-08-27T22:44:40.627Z,4.67
2022-08-27T22:47:07.644Z,10.53
2022-08-27T22:49:34.336Z,9.37
2022-08-27T22:52:01.232Z,16.97
2022-08-27T22:54:28.031Z,10.73
2022-08-27T22:56:54.942Z,7.60
2022-08-27T22:59:21.755Z,2.67
2022-08-27T23:01:48.564Z,2.23
2022-08-27T23:04:15.819Z,1.60
2022-08-27T23:06:42.735Z,0.83
2022-08-27T23:09:09.681Z,1.20
2022-08-27T23:11:36.420Z,1.50
2022-08-27T23:14:03.328Z,1.27
2022-08-27T23:16:31.838Z,1.50
2022-08-27T23:18:58.659Z,0.60
2022-08-27T23:21:25.701Z,1.53
2022-08-27T23:23:52.614Z,1.23
2022-08-27T23:26:37.918Z,1.73
2022-08-27T23:29:05.372Z,0.70
2022-08-27T23:31:32.223Z,0.60
2022-08-27T23:33:59.772Z,0.67
2022-08-27T23:36:26.632Z,0.43
2022-08-27T23:38:53.443Z,0.50
2022-08-27T23:41:20.735Z,0.60
2022-08-27T23:43:47.515Z,0.77
2022-08-27T23:46:15.208Z,0.50
2022-08-27T23:48:41.999Z,1.00
2022-08-27T23:51:09.681Z,0.60
2022-08-27T23:53:39.370Z,0.60
2022-08-27T23:56:06.571Z,0.80
2022-08-27T23:58:33.892Z,1.33
